Airport ID:KS21
Update Time (UTC):08/08/2020 12:30
Wind Speed (Knots):2
Wind Direction (Magnetic):190
Temperature (°C):4
Dew Point (°C):2
Humidity (%):88
Altimeter (inHg):30.23
Density Altitude (Feet):
Visibility:10+
Clouds (Hundreds of feet):CLR
Present Weather:
METAR:METAR KS21 081225Z AUTO 00000KT 10SM CLR 04/02 A3024 RMK AO2

The data displayed is for advisory purposes only and is not to be used for flight planning or operations.